createdAt,value
2023-03-11T00:00:22.256Z,69.85
2023-03-11T00:01:22.223Z,69.85
2023-03-11T00:02:22.442Z,69.74
2023-03-11T00:03:22.188Z,70.06
2023-03-11T00:04:22.201Z,69.54
2023-03-11T00:05:22.209Z,69.33
2023-03-11T00:06:22.159Z,69.43
2023-03-11T00:07:22.127Z,69.43
2023-03-11T00:08:22.164Z,69.64
2023-03-11T00:09:22.112Z,69.33
2023-03-11T00:10:22.099Z,69.43
2023-03-11T00:11:22.095Z,70.06
2023-03-11T00:12:22.083Z,69.33
2023-03-11T00:13:22.057Z,69.12
2023-03-11T00:14:22.058Z,69.43
2023-03-11T00:15:22.028Z,69.43
2023-03-11T00:16:22.095Z,69.05
2023-03-11T00:17:22.001Z,69.15
2023-03-11T00:18:22.029Z,69.68
2023-03-11T00:19:21.987Z,69.57
2023-03-11T00:20:22.008Z,70.20
2023-03-11T00:21:21.973Z,69.99
2023-03-11T00:22:21.984Z,69.78
2023-03-11T00:23:21.946Z,69.78
2023-03-11T00:24:21.929Z,69.68
2023-03-11T00:25:21.908Z,69.57
2023-03-11T00:26:21.929Z,69.68
2023-03-11T00:27:21.879Z,69.89
2023-03-11T00:28:21.886Z,69.89
2023-03-11T00:29:21.877Z,70.20
2023-03-11T00:30:21.875Z,70.20
2023-03-11T00:31:21.902Z,69.26
2023-03-11T00:32:21.872Z,69.37
2023-03-11T00:33:21.814Z,69.89
2023-03-11T00:34:21.821Z,69.89
2023-03-11T00:35:21.787Z,70.09
2023-03-11T00:36:21.799Z,70.09
2023-03-11T00:37:21.761Z,70.20
2023-03-11T00:38:21.823Z,69.68
2023-03-11T00:39:21.728Z,69.78
2023-03-11T00:40:21.721Z,69.68
2023-03-11T00:41:21.718Z,69.68
2023-03-11T00:42:21.711Z,70.09
2023-03-11T00:43:21.697Z,69.68
2023-03-11T00:44:21.700Z,69.78
2023-03-11T00:45:21.666Z,69.68
2023-03-11T00:46:21.738Z,69.47
2023-03-11T00:47:21.633Z,69.26
2023-03-11T00:48:21.613Z,69.47
2023-03-11T00:49:21.598Z,69.60
2023-03-11T00:50:21.599Z,69.47
2023-03-11T00:51:21.593Z,69.60
2023-03-11T00:52:21.577Z,69.89
2023-03-11T00:53:21.568Z,69.89
2023-03-11T00:54:21.565Z,69.68
2023-03-11T00:55:21.519Z,69.81
2023-03-11T00:56:21.552Z,69.71
2023-03-11T00:57:21.520Z,70.12
2023-03-11T00:58:21.505Z,69.92
2023-03-11T00:59:21.497Z,70.23
2023-03-11T01:00:21.501Z,70.33
2023-03-11T01:01:21.515Z,70.64
2023-03-11T01:02:21.437Z,70.75
2023-03-11T01:03:21.446Z,70.40
2023-03-11T01:04:21.514Z,70.33
2023-03-11T01:05:21.414Z,70.92
2023-03-11T01:06:21.420Z,70.75
2023-03-11T01:07:21.379Z,70.75
2023-03-11T01:08:21.369Z,70.64
2023-03-11T01:09:21.356Z,70.95
2023-03-11T01:10:21.344Z,70.95
2023-03-11T01:11:21.359Z,71.27
2023-03-11T01:12:21.317Z,71.27
2023-03-11T01:13:21.303Z,70.95
2023-03-11T01:14:21.288Z,71.69
2023-03-11T01:15:21.277Z,71.89
2023-03-11T01:16:21.457Z,71.69
2023-03-11T01:17:21.267Z,71.69
2023-03-11T01:18:21.233Z,71.27
2023-03-11T01:19:21.240Z,71.48
2023-03-11T01:20:21.224Z,71.37
2023-03-11T01:21:21.218Z,71.37
2023-03-11T01:22:21.203Z,71.69
2023-03-11T01:23:21.187Z,71.48
2023-03-11T01:24:21.157Z,71.69
2023-03-11T01:25:21.171Z,71.72
2023-03-11T01:26:21.152Z,71.82
2023-03-11T01:27:21.126Z,71.92
2023-03-11T01:28:21.113Z,71.82
2023-03-11T01:29:21.103Z,72.24
2023-03-11T01:30:21.133Z,72.13
2023-03-11T01:31:21.142Z,72.24
2023-03-11T01:32:21.083Z,72.55
2023-03-11T01:33:21.052Z,72.76
2023-03-11T01:34:21.051Z,72.76
2023-03-11T01:35:21.027Z,72.97
2023-03-11T01:36:21.020Z,73.28
2023-03-11T01:37:21.016Z,73.28
2023-03-11T01:38:20.984Z,73.32
2023-03-11T01:39:20.989Z,73.42
2023-03-11T01:40:20.973Z,73.94
2023-03-11T01:41:20.957Z,73.42
2023-03-11T01:42:20.928Z,73.32
2023-03-11T01:43:20.951Z,73.63
2023-03-11T01:44:20.908Z,73.63
2023-03-11T01:45:20.908Z,73.63
2023-03-11T01:46:20.951Z,73.73
2023-03-11T01:47:20.900Z,73.73
2023-03-11T01:48:20.880Z,74.04
2023-03-11T01:49:20.857Z,74.04
2023-03-11T01:50:20.827Z,73.63
2023-03-11T01:51:20.836Z,73.52
2023-03-11T01:52:20.820Z,74.04
2023-03-11T01:53:20.809Z,74.04
2023-03-11T01:54:20.777Z,74.35
2023-03-11T01:55:20.789Z,74.35
2023-03-11T01:56:20.806Z,74.56
2023-03-11T01:57:20.752Z,74.77
2023-03-11T01:58:20.749Z,74.77
2023-03-11T01:59:20.726Z,75.09
2023-03-11T02:00:20.697Z,75.29
2023-03-11T02:01:20.742Z,75.71
2023-03-11T02:02:20.685Z,75.60
2023-03-11T02:03:20.753Z,75.60
2023-03-11T02:04:20.655Z,75.92
2023-03-11T02:05:20.670Z,75.92
2023-03-11T02:06:20.638Z,76.02
2023-03-11T02:07:20.650Z,76.23
2023-03-11T02:08:20.613Z,76.12
2023-03-11T02:09:20.597Z,76.33
2023-03-11T02:10:20.570Z,76.43
2023-03-11T02:11:20.612Z,76.43
2023-03-11T02:12:20.550Z,76.57
2023-03-11T02:13:20.570Z,76.89
2023-03-11T02:14:20.555Z,76.89
2023-03-11T02:15:20.526Z,76.89
2023-03-11T02:16:20.588Z,77.10
2023-03-11T02:17:20.501Z,77.10
2023-03-11T02:18:20.494Z,77.10
2023-03-11T02:19:20.484Z,77.10
2023-03-11T02:20:20.461Z,77.10
2023-03-11T02:21:20.477Z,77.10
2023-03-11T02:22:20.446Z,77.20
2023-03-11T02:23:20.429Z,76.99
2023-03-11T02:24:20.414Z,76.78
2023-03-11T02:25:20.393Z,76.99
2023-03-11T02:26:20.432Z,77.31
2023-03-11T02:27:20.392Z,77.41
2023-03-11T02:28:20.365Z,77.51
2023-03-11T02:29:20.435Z,77.62
2023-03-11T02:30:20.335Z,77.83
2023-03-11T02:31:20.353Z,78.14
2023-03-11T02:32:20.354Z,78.03
2023-03-11T02:33:20.306Z,78.03
2023-03-11T02:34:20.318Z,78.03
2023-03-11T02:35:20.264Z,77.93
2023-03-11T02:36:20.246Z,78.03
2023-03-11T02:37:20.268Z,78.03
2023-03-11T02:38:20.243Z,78.14
2023-03-11T02:39:20.218Z,78.34
2023-03-11T02:40:20.218Z,78.34
2023-03-11T02:41:20.204Z,78.03
2023-03-11T02:42:20.201Z,78.24
2023-03-11T02:43:20.176Z,78.66
2023-03-11T02:44:20.164Z,78.66
2023-03-11T02:45:20.162Z,78.77
2023-03-11T02:46:20.211Z,78.87
2023-03-11T02:47:20.157Z,78.87
2023-03-11T02:48:20.106Z,78.77
2023-03-11T02:49:20.085Z,79.01
2023-03-11T02:50:20.082Z,79.08
2023-03-11T02:51:20.062Z,79.22
2023-03-11T02:52:20.063Z,79.32
2023-03-11T02:53:20.045Z,79.43
2023-03-11T02:54:20.019Z,79.43
2023-03-11T02:55:20.023Z,79.63
2023-03-11T02:56:27.499Z,79.43
2023-03-11T02:57:20.009Z,79.22
2023-03-11T02:58:27.467Z,79.01
2023-03-11T02:59:27.472Z,79.22
2023-03-11T03:00:27.448Z,79.01
2023-03-11T03:01:27.437Z,79.11
2023-03-11T03:02:30.142Z,79.11
2023-03-11T03:03:27.422Z,79.11
2023-03-11T03:04:27.449Z,79.32
2023-03-11T03:05:19.876Z,79.32
2023-03-11T03:06:45.881Z,79.22
2023-03-11T03:07:19.904Z,79.32
2023-03-11T03:08:28.365Z,79.32
2023-03-11T03:09:27.347Z,79.43
2023-03-11T03:10:19.804Z,79.22
2023-03-11T03:11:27.308Z,79.32
2023-03-11T03:12:28.476Z,79.11
2023-03-11T03:13:28.293Z,79.32
2023-03-11T03:14:45.871Z,79.22
2023-03-11T03:15:19.770Z,79.11
2023-03-11T03:16:19.811Z,79.15
2023-03-11T03:17:19.804Z,79.15
2023-03-11T03:18:19.724Z,79.25
2023-03-11T03:19:19.729Z,79.46
2023-03-11T03:20:19.692Z,78.94
2023-03-11T03:21:19.718Z,78.94
2023-03-11T03:22:19.711Z,78.83
2023-03-11T03:23:19.694Z,78.73
2023-03-11T03:24:19.695Z,78.94
2023-03-11T03:25:19.649Z,79.05
2023-03-11T03:26:19.622Z,78.73
2023-03-11T03:27:19.619Z,78.52
2023-03-11T03:28:19.624Z,78.83
2023-03-11T03:29:19.617Z,78.94
2023-03-11T03:30:19.591Z,78.63
2023-03-11T03:31:19.644Z,78.73
2023-03-11T03:32:19.587Z,78.94
2023-03-11T03:33:19.548Z,78.83
2023-03-11T03:34:19.530Z,78.83
2023-03-11T03:35:19.540Z,78.83
2023-03-11T03:36:19.501Z,78.31
2023-03-11T03:37:19.483Z,78.11
2023-03-11T03:38:19.493Z,78.42
2023-03-11T03:39:19.485Z,78.21
2023-03-11T03:40:19.475Z,78.42
2023-03-11T03:41:19.434Z,78.52
2023-03-11T03:42:19.415Z,78.21
2023-03-11T03:43:19.414Z,78.42
2023-03-11T03:44:19.392Z,78.31
2023-03-11T03:45:19.386Z,78.11
2023-03-11T03:46:19.435Z,77.80
2023-03-11T03:47:19.372Z,77.80
2023-03-11T03:48:19.368Z,78.00
2023-03-11T03:49:19.367Z,77.58
2023-03-11T04:03:07.675Z,77.31
2023-03-11T04:04:07.650Z,77.51
2023-03-11T04:05:07.629Z,77.51
2023-03-11T04:06:07.642Z,77.51
2023-03-11T04:07:07.611Z,77.62
2023-03-11T04:08:07.619Z,77.51
2023-03-11T04:09:07.578Z,77.58
2023-03-11T04:10:07.601Z,77.41
2023-03-11T04:11:07.591Z,77.41
2023-03-11T04:12:07.557Z,77.41
2023-03-11T04:13:07.578Z,77.41
2023-03-11T04:14:07.530Z,77.31
2023-03-11T04:15:07.500Z,77.41
2023-03-11T04:16:07.512Z,77.31
2023-03-11T04:17:07.549Z,77.00
2023-03-11T04:18:07.484Z,77.20
2023-03-11T04:19:07.480Z,77.06
2023-03-11T04:20:07.461Z,77.48
2023-03-11T04:21:07.450Z,77.27
2023-03-11T04:22:07.467Z,76.75
2023-03-11T04:23:07.446Z,76.96
2023-03-11T04:24:07.420Z,76.75
2023-03-11T04:25:07.428Z,77.06
2023-03-11T04:26:07.374Z,76.86
2023-03-11T04:27:07.378Z,76.65
2023-03-11T04:28:07.399Z,76.86
2023-03-11T04:29:07.335Z,76.96
2023-03-11T04:30:07.324Z,76.65
2023-03-11T04:31:07.411Z,76.75
2023-03-11T04:32:07.286Z,76.57
2023-03-11T04:33:07.281Z,76.68
2023-03-11T04:34:07.292Z,76.79
2023-03-11T04:35:07.273Z,77.10
2023-03-11T04:36:07.239Z,76.79
2023-03-11T04:37:07.247Z,76.89
2023-03-11T04:38:07.226Z,76.89
2023-03-11T04:39:07.212Z,77.00
2023-03-11T04:40:07.211Z,76.79
2023-03-11T04:41:07.187Z,76.79
2023-03-11T04:42:07.180Z,76.89
2023-03-11T04:43:07.138Z,77.10
2023-03-11T04:44:07.172Z,77.20
2023-03-11T04:45:07.130Z,77.10
2023-03-11T04:46:07.131Z,77.10
2023-03-11T04:47:07.109Z,77.10
2023-03-11T04:48:07.086Z,77.10
2023-03-11T04:49:07.091Z,77.10
2023-03-11T04:50:07.050Z,77.20
2023-03-11T04:51:07.051Z,76.89
2023-03-11T04:52:07.052Z,77.00
2023-03-11T04:53:07.035Z,77.51
2023-03-11T04:54:07.020Z,77.20
2023-03-11T04:55:07.003Z,77.51
2023-03-11T04:56:07.012Z,77.51
2023-03-11T04:57:06.988Z,77.41
2023-03-11T04:58:06.971Z,77.51
2023-03-11T04:59:06.970Z,77.62
2023-03-11T05:00:06.939Z,77.20
2023-03-11T05:01:07.016Z,77.31
2023-03-11T05:02:06.908Z,77.31
2023-03-11T05:03:06.954Z,77.51
2023-03-11T05:04:06.930Z,77.62
2023-03-11T05:05:06.884Z,77.72
2023-03-11T05:06:06.861Z,77.83
2023-03-11T05:07:06.852Z,78.04
2023-03-11T05:08:06.842Z,78.25
2023-03-11T05:09:06.836Z,78.04
2023-03-11T05:10:06.828Z,78.14
2023-03-11T05:11:06.810Z,78.25
2023-03-11T05:12:06.779Z,78.25
2023-03-11T05:13:06.800Z,78.45
2023-03-11T05:14:06.760Z,78.56
2023-03-11T05:15:06.770Z,78.66
2023-03-11T05:16:06.795Z,78.87
2023-03-11T05:17:06.792Z,79.19
2023-03-11T05:18:06.765Z,79.08
2023-03-11T05:19:06.709Z,79.19
2023-03-11T05:20:16.559Z,79.39
2023-03-11T05:21:06.709Z,79.50
2023-03-11T05:22:06.658Z,79.33
2023-03-11T05:23:06.649Z,79.53
2023-03-11T05:24:06.642Z,79.71
2023-03-11T05:25:06.635Z,79.60
2023-03-11T05:26:06.619Z,79.39
2023-03-11T05:27:06.623Z,79.50
2023-03-11T05:28:06.583Z,79.71
2023-03-11T05:29:06.601Z,79.29
2023-03-11T05:30:06.570Z,79.08
2023-03-11T05:31:06.586Z,79.19
2023-03-11T05:32:06.569Z,79.29
2023-03-11T05:33:06.517Z,78.97
2023-03-11T05:34:06.559Z,78.87
2023-03-11T05:35:06.522Z,78.87
2023-03-11T05:36:06.497Z,79.08
2023-03-11T05:37:06.490Z,79.19
2023-03-11T05:38:06.465Z,79.08
2023-03-11T05:39:06.477Z,79.29
2023-03-11T05:40:06.474Z,79.19
2023-03-11T05:41:06.446Z,79.08
2023-03-11T05:42:06.404Z,79.08
2023-03-11T05:43:06.413Z,78.97
2023-03-11T05:44:06.398Z,78.97
2023-03-11T05:45:06.403Z,78.97
2023-03-11T05:46:06.413Z,79.08
2023-03-11T05:47:06.354Z,79.08
2023-03-11T05:48:06.343Z,78.87
2023-03-11T05:49:06.351Z,79.08
2023-03-11T05:50:06.336Z,79.08
2023-03-11T05:51:06.329Z,79.08
2023-03-11T05:52:06.293Z,78.97
2023-03-11T05:53:06.293Z,79.19
2023-03-11T05:54:06.265Z,79.19
2023-03-11T05:55:06.281Z,79.39
2023-03-11T05:56:06.505Z,79.60
2023-03-11T05:57:06.233Z,79.29
2023-03-11T05:58:06.229Z,79.08
2023-03-11T05:59:06.228Z,79.08
2023-03-11T06:00:06.206Z,79.29
2023-03-11T06:01:06.313Z,79.39
2023-03-11T06:02:06.181Z,79.50
2023-03-11T06:03:06.162Z,79.29
2023-03-11T06:04:06.186Z,79.29
2023-03-11T06:05:08.307Z,79.29
2023-03-11T06:06:06.111Z,79.19
2023-03-11T06:07:06.100Z,79.39
2023-03-11T06:08:06.102Z,79.29
2023-03-11T06:09:06.123Z,79.29
2023-03-11T06:10:06.067Z,79.08
2023-03-11T06:11:06.100Z,78.97
2023-03-11T06:12:06.033Z,79.29
2023-03-11T06:13:06.048Z,79.08
2023-03-11T06:14:06.045Z,79.29
2023-03-11T06:15:06.010Z,79.39
2023-03-11T06:16:05.996Z,79.08
2023-03-11T06:17:05.970Z,78.97
2023-03-11T06:18:05.971Z,78.97
2023-03-11T06:19:05.950Z,79.29
2023-03-11T06:20:06.030Z,79.67
2023-03-11T06:21:05.970Z,79.46
2023-03-11T06:22:05.912Z,78.63
2023-03-11T06:23:05.912Z,78.42
2023-03-11T06:24:05.879Z,78.45
2023-03-11T06:25:05.883Z,78.77
2023-03-11T06:26:05.876Z,78.97
2023-03-11T06:27:05.867Z,79.08
2023-03-11T06:28:05.828Z,78.97
2023-03-11T06:29:05.839Z,78.94
2023-03-11T06:30:05.811Z,78.42
2023-03-11T06:31:05.802Z,78.42
2023-03-11T06:32:05.780Z,78.42
2023-03-11T06:33:05.778Z,78.42
2023-03-11T06:34:05.771Z,77.90
2023-03-11T06:35:05.761Z,77.80
2023-03-11T06:36:06.064Z,78.04
2023-03-11T06:37:05.741Z,78.11
2023-03-11T06:38:05.715Z,78.11
2023-03-11T06:39:05.724Z,77.90
2023-03-11T06:40:05.714Z,78.42
2023-03-11T06:41:05.701Z,78.21
2023-03-11T06:42:05.696Z,78.11
2023-03-11T06:43:05.652Z,78.00
2023-03-11T06:44:05.660Z,77.90
2023-03-11T06:45:05.661Z,77.90
2023-03-11T06:46:05.628Z,78.00
2023-03-11T06:47:05.614Z,77.90
2023-03-11T06:48:05.595Z,78.00
2023-03-11T06:49:05.619Z,78.11
2023-03-11T06:50:05.586Z,78.11
2023-03-11T06:51:05.562Z,78.11
2023-03-11T06:52:05.679Z,78.21
2023-03-11T06:53:05.544Z,78.21
2023-03-11T06:54:05.534Z,77.80
2023-03-11T06:55:05.534Z,77.80
2023-03-11T06:56:05.491Z,78.00
2023-03-11T06:57:05.498Z,77.90
2023-03-11T06:58:05.602Z,77.90
2023-03-11T06:59:05.466Z,77.69
2023-03-11T07:00:05.531Z,78.00
2023-03-11T07:01:05.450Z,78.11
2023-03-11T07:02:05.487Z,78.21
2023-03-11T07:03:05.414Z,78.31
2023-03-11T07:04:05.422Z,78.73
2023-03-11T07:05:05.395Z,78.83
2023-03-11T07:06:06.712Z,78.63
2023-03-11T07:07:05.352Z,78.42
2023-03-11T07:08:05.345Z,78.42
2023-03-11T07:09:05.320Z,78.52
2023-03-11T07:10:05.332Z,78.83
2023-03-11T07:11:05.346Z,78.73
2023-03-11T07:12:06.719Z,78.94
2023-03-11T07:13:05.282Z,78.94
2023-03-11T07:14:05.406Z,78.49
2023-03-11T07:15:05.317Z,78.59
2023-03-11T07:16:05.377Z,78.80
2023-03-11T07:17:05.260Z,78.28
2023-03-11T07:18:05.219Z,77.97
2023-03-11T07:19:05.207Z,78.17
2023-03-11T07:20:05.212Z,77.86
2023-03-11T07:21:05.220Z,77.97
2023-03-11T07:22:05.169Z,77.76
2023-03-11T07:23:05.172Z,77.86
2023-03-11T07:24:05.143Z,78.17
2023-03-11T07:25:05.144Z,77.97
2023-03-11T07:26:05.151Z,77.86
2023-03-11T07:27:05.114Z,77.76
2023-03-11T07:28:05.097Z,77.76
2023-03-11T07:29:05.120Z,77.83
2023-03-11T07:30:05.067Z,77.93
2023-03-11T07:31:05.123Z,77.62
2023-03-11T07:32:05.164Z,77.51
2023-03-11T07:33:05.024Z,77.72
2023-03-11T07:34:05.018Z,77.72
2023-03-11T07:35:05.006Z,77.62
2023-03-11T07:36:05.074Z,77.93
2023-03-11T07:37:04.993Z,77.72
2023-03-11T07:38:04.973Z,77.72
2023-03-11T07:39:04.960Z,77.72
2023-03-11T07:40:04.953Z,78.24
2023-03-11T07:41:04.938Z,78.03
2023-03-11T07:42:04.927Z,77.93
2023-03-11T07:43:04.926Z,77.83
2023-03-11T07:44:05.034Z,78.03
2023-03-11T07:45:04.897Z,78.24
2023-03-11T07:46:05.312Z,78.14
2023-03-11T07:47:04.865Z,77.93
2023-03-11T07:48:04.835Z,77.93
2023-03-11T07:49:04.847Z,78.03
2023-03-11T07:50:04.874Z,78.07
2023-03-11T07:51:04.806Z,78.07
2023-03-11T07:52:04.818Z,78.07
2023-03-11T07:53:04.782Z,77.86
2023-03-11T07:54:04.765Z,77.76
2023-03-11T07:55:04.733Z,77.97
2023-03-11T07:56:04.743Z,78.07
2023-03-11T07:57:04.755Z,78.28
2023-03-11T07:58:04.756Z,77.97
2023-03-11T07:59:04.738Z,77.76
2023-03-11T08:00:04.670Z,77.86
2023-03-11T08:01:04.704Z,78.17
2023-03-11T08:02:04.778Z,78.17
2023-03-11T08:03:04.668Z,78.28
2023-03-11T08:04:04.666Z,78.17
2023-03-11T08:05:04.613Z,78.17
2023-03-11T08:06:04.628Z,78.34
2023-03-11T08:07:04.594Z,78.03
2023-03-11T08:08:04.573Z,77.51
2023-03-11T08:09:04.589Z,77.31
2023-03-11T08:10:04.564Z,76.99
2023-03-11T08:11:04.566Z,76.96
2023-03-11T08:12:04.542Z,77.06
2023-03-11T08:13:04.551Z,77.17
2023-03-11T08:14:04.513Z,76.96
2023-03-11T08:15:04.565Z,76.02
2023-03-11T08:16:04.550Z,76.12
2023-03-11T08:17:04.490Z,75.71
2023-03-11T08:18:04.503Z,75.50
2023-03-11T08:19:04.445Z,75.29
2023-03-11T08:20:04.500Z,75.92
2023-03-11T08:21:04.483Z,75.78
2023-03-11T08:22:04.448Z,75.46
2023-03-11T08:23:04.433Z,74.63
2023-03-11T08:24:06.697Z,74.63
2023-03-11T08:25:04.432Z,74.74
2023-03-11T08:26:04.408Z,74.95
2023-03-11T08:27:04.385Z,75.26
2023-03-11T08:28:04.317Z,75.67
2023-03-11T08:29:04.372Z,75.26
2023-03-11T08:30:04.361Z,74.87
2023-03-11T08:31:04.386Z,75.09
2023-03-11T08:32:04.294Z,75.29
2023-03-11T08:33:04.290Z,75.60
2023-03-11T08:34:04.245Z,75.36
2023-03-11T08:35:04.266Z,74.95
2023-03-11T08:36:04.334Z,74.63
2023-03-11T08:37:04.248Z,74.95
2023-03-11T08:38:04.231Z,74.53
2023-03-11T08:39:04.328Z,74.63
2023-03-11T08:40:04.187Z,74.63
2023-03-11T08:41:04.196Z,74.18
2023-03-11T08:42:04.199Z,74.29
2023-03-11T08:43:04.183Z,73.52
2023-03-11T08:44:04.158Z,72.59
2023-03-11T08:45:04.130Z,72.38
2023-03-11T08:46:04.159Z,72.80
2023-03-11T08:47:04.113Z,72.90
2023-03-11T08:48:04.086Z,72.03
2023-03-11T08:49:04.096Z,71.41
2023-03-11T08:50:04.054Z,71.20
2023-03-11T08:51:04.046Z,71.10
2023-03-11T08:52:04.016Z,69.85
2023-03-11T08:53:04.034Z,70.37
2023-03-11T08:54:04.038Z,70.44
2023-03-11T08:55:04.009Z,70.54
2023-03-11T08:56:03.986Z,69.92
2023-03-11T08:57:03.992Z,69.61
2023-03-11T08:58:03.958Z,69.51
2023-03-11T08:59:03.966Z,69.40
2023-03-11T09:00:03.935Z,68.99
2023-03-11T09:01:03.941Z,68.57
2023-03-11T09:02:03.894Z,69.30
2023-03-11T09:03:03.986Z,68.99
2023-03-11T09:04:03.899Z,69.48
2023-03-11T09:05:03.905Z,69.58
2023-03-11T09:06:03.921Z,68.62
2023-03-11T09:07:03.835Z,69.24
2023-03-11T09:08:05.469Z,69.31
2023-03-11T09:09:03.805Z,68.69
2023-03-11T09:10:03.796Z,66.99
2023-03-11T09:11:03.821Z,65.99
2023-03-11T09:12:03.800Z,66.20
2023-03-11T09:13:03.755Z,66.20
2023-03-11T09:14:03.750Z,65.89
2023-03-11T09:15:03.765Z,65.70
2023-03-11T09:16:03.757Z,65.91
2023-03-11T09:17:03.707Z,65.39
2023-03-11T09:18:03.682Z,66.61
2023-03-11T09:19:03.697Z,65.47
2023-03-11T09:20:03.697Z,64.40
2023-03-11T09:21:03.718Z,63.89
2023-03-11T09:22:03.638Z,63.99
2023-03-11T09:23:03.638Z,64.20
2023-03-11T09:24:03.637Z,64.30
2023-03-11T09:25:03.620Z,64.12
2023-03-11T09:26:03.639Z,64.54
2023-03-11T09:27:03.582Z,64.23
2023-03-11T09:28:03.567Z,63.81
2023-03-11T09:29:03.549Z,63.63
2023-03-11T09:30:03.576Z,64.49
2023-03-11T09:31:03.584Z,65.14
2023-03-11T09:32:03.585Z,65.35
2023-03-11T09:33:03.508Z,65.77
2023-03-11T09:34:03.519Z,65.48
2023-03-11T09:35:03.491Z,66.74
2023-03-11T09:36:03.601Z,65.90
2023-03-11T09:37:03.483Z,66.84
2023-03-11T09:38:03.441Z,67.29
2023-03-11T09:39:03.432Z,68.01
2023-03-11T09:40:03.546Z,68.56
2023-03-11T09:41:03.421Z,68.88
2023-03-11T09:42:03.409Z,69.81
2023-03-11T09:43:03.387Z,69.71
2023-03-11T09:44:03.389Z,70.33
2023-03-11T09:45:03.374Z,70.23
2023-03-11T09:46:03.369Z,69.71
2023-03-11T09:47:03.469Z,69.99
2023-03-11T10:03:10.285Z,73.42
2023-03-11T10:04:10.158Z,72.76
2023-03-11T10:05:10.274Z,72.86
2023-03-11T10:06:10.186Z,72.97
2023-03-11T10:07:10.128Z,72.55
2023-03-11T10:08:10.565Z,72.76
2023-03-11T10:09:10.117Z,72.76
2023-03-11T10:10:10.097Z,72.24
2023-03-11T10:11:10.105Z,72.45
2023-03-11T10:12:10.076Z,72.55
2023-03-11T10:13:10.086Z,70.48
2023-03-11T10:14:10.045Z,69.64
2023-03-11T10:15:10.728Z,69.23
2023-03-11T10:16:10.095Z,68.81
2023-03-11T10:17:09.994Z,71.13
2023-03-11T10:18:09.999Z,72.52
2023-03-11T10:19:10.012Z,73.80
2023-03-11T10:20:09.978Z,74.87
2023-03-11T10:21:09.976Z,76.02
2023-03-11T10:22:09.947Z,77.62
2023-03-11T10:23:09.930Z,78.66
2023-03-11T10:24:09.906Z,79.28
2023-03-11T10:25:09.947Z,80.33
2023-03-11T10:26:09.906Z,81.37
2023-03-11T10:27:09.878Z,82.20
2023-03-11T10:28:09.865Z,83.04
2023-03-11T10:29:09.888Z,83.04
2023-03-11T10:30:09.889Z,83.04
2023-03-11T10:31:09.860Z,83.25
2023-03-11T10:32:09.847Z,83.25
2023-03-11T10:33:09.796Z,82.62
2023-03-11T10:34:09.825Z,82.48
2023-03-11T10:35:09.772Z,82.58
2023-03-11T10:36:09.848Z,81.92
2023-03-11T10:37:09.753Z,81.81
2023-03-11T10:38:09.736Z,80.98
2023-03-11T10:39:09.746Z,81.15
2023-03-11T10:40:09.710Z,80.43
2023-03-11T10:41:09.736Z,80.70
2023-03-11T10:42:09.738Z,79.97
2023-03-11T10:43:09.671Z,79.83
2023-03-11T10:44:09.688Z,77.82
2023-03-11T10:45:09.648Z,77.16
2023-03-11T10:46:09.709Z,76.37
2023-03-11T10:47:09.616Z,75.71
2023-03-11T10:48:09.615Z,73.08
2023-03-11T10:49:09.579Z,72.25
2023-03-11T10:50:09.589Z,71.01
2023-03-11T10:51:09.601Z,71.25
2023-03-11T10:52:09.547Z,71.77
2023-03-11T10:53:09.586Z,71.80
2023-03-11T10:54:09.625Z,71.62
2023-03-11T10:55:09.521Z,72.80
2023-03-11T10:56:09.548Z,73.63
2023-03-11T10:57:09.487Z,73.53
2023-03-11T10:58:09.478Z,74.18
2023-03-11T10:59:09.527Z,74.18
2023-03-11T11:00:09.534Z,73.97
2023-03-11T11:01:09.470Z,74.70
2023-03-11T11:02:09.452Z,74.95
2023-03-11T11:03:09.464Z,75.67
2023-03-11T11:04:09.430Z,75.85
2023-03-11T11:05:09.379Z,75.64
2023-03-11T11:06:09.401Z,75.12
2023-03-11T11:07:09.371Z,74.26
2023-03-11T11:08:09.360Z,74.88
2023-03-11T11:09:09.346Z,75.15
2023-03-11T11:10:09.321Z,74.40
2023-03-11T11:11:09.373Z,73.25
2023-03-11T11:12:09.331Z,72.14
2023-03-11T11:13:09.309Z,72.11
2023-03-11T11:14:09.314Z,72.22
2023-03-11T11:15:09.311Z,72.70
2023-03-11T11:16:09.282Z,71.60
2023-03-11T11:17:09.272Z,64.40
2023-03-11T11:18:09.247Z,62.24
2023-03-11T11:19:09.230Z,53.95
2023-03-11T11:20:09.242Z,48.82
2023-03-11T11:21:09.206Z,48.39
2023-03-11T11:22:09.212Z,48.81
2023-03-11T11:23:09.171Z,49.72
2023-03-11T11:24:09.166Z,51.56
2023-03-11T11:25:09.202Z,53.07
2023-03-11T11:26:09.133Z,54.69
2023-03-11T11:27:09.149Z,56.36
2023-03-11T11:28:09.141Z,57.65
2023-03-11T11:29:09.423Z,58.09
2023-03-11T11:30:09.103Z,56.10
2023-03-11T11:31:09.162Z,56.75
2023-03-11T11:32:09.123Z,57.19
2023-03-11T11:33:09.065Z,56.62
2023-03-11T11:34:09.072Z,57.92
2023-03-11T11:35:09.046Z,60.53
2023-03-11T11:36:09.034Z,61.40
2023-03-11T11:37:08.995Z,62.64
2023-03-11T11:38:09.006Z,62.02
2023-03-11T11:39:09.016Z,61.50
2023-03-11T11:40:10.988Z,61.16
2023-03-11T11:41:08.946Z,61.05
2023-03-11T11:42:08.961Z,60.43
2023-03-11T11:43:08.934Z,60.12
2023-03-11T11:44:08.950Z,60.02
2023-03-11T11:45:08.923Z,60.43
2023-03-11T11:46:08.949Z,60.85
2023-03-11T11:47:08.964Z,61.68
2023-03-11T11:48:08.878Z,61.57
2023-03-11T11:49:08.863Z,60.53
2023-03-11T11:50:08.865Z,62.58
2023-03-11T11:51:08.849Z,60.93
2023-03-11T11:52:08.866Z,60.06
2023-03-11T11:53:08.783Z,59.66
2023-03-11T11:54:08.783Z,59.24
2023-03-11T11:55:08.765Z,59.96
2023-03-11T11:56:08.787Z,60.87
2023-03-11T11:57:08.808Z,59.91
2023-03-11T11:58:08.751Z,60.32
2023-03-11T11:59:08.759Z,59.16
2023-03-11T12:00:08.752Z,58.95
2023-03-11T12:01:08.706Z,58.20
2023-03-11T12:02:08.723Z,58.40
2023-03-11T12:03:08.700Z,56.85
2023-03-11T12:04:08.679Z,56.96
2023-03-11T12:05:08.703Z,56.96
2023-03-11T12:06:08.644Z,56.62
2023-03-11T12:07:08.649Z,56.73
2023-03-11T12:08:08.601Z,56.73
2023-03-11T12:09:08.581Z,56.39
2023-03-11T12:10:21.706Z,56.88
2023-03-11T12:11:09.549Z,57.70
2023-03-11T12:12:08.615Z,55.43
2023-03-11T12:13:08.593Z,56.81
2023-03-11T12:14:08.544Z,57.21
2023-03-11T12:15:08.511Z,55.90
2023-03-11T12:16:08.506Z,55.00
2023-03-11T12:17:08.512Z,55.85
2023-03-11T12:18:08.515Z,57.21
2023-03-11T12:19:08.453Z,57.14
2023-03-11T12:20:08.488Z,57.89
2023-03-11T12:21:08.482Z,58.87
2023-03-11T12:22:08.456Z,60.66
2023-03-11T12:23:08.458Z,61.62
2023-03-11T12:24:08.407Z,62.79
2023-03-11T12:25:08.401Z,62.89
2023-03-11T12:26:08.416Z,63.23
2023-03-11T12:27:08.373Z,63.44
2023-03-11T12:28:08.447Z,63.23
2023-03-11T12:29:08.319Z,63.26
2023-03-11T12:30:08.323Z,64.09
2023-03-11T12:31:08.381Z,64.40
2023-03-11T12:32:08.313Z,65.23
2023-03-11T12:33:08.313Z,65.52
2023-03-11T12:34:08.293Z,65.10
2023-03-11T12:35:08.307Z,64.24
2023-03-11T12:36:08.521Z,63.51
2023-03-11T12:37:08.245Z,63.38
2023-03-11T12:38:08.208Z,63.04
2023-03-11T12:39:08.232Z,62.70
2023-03-11T12:40:08.206Z,62.39
2023-03-11T12:41:08.215Z,62.05
2023-03-11T12:42:08.308Z,59.70
2023-03-11T12:43:08.209Z,58.98
2023-03-11T12:44:08.194Z,59.00
2023-03-11T12:45:08.171Z,59.42
2023-03-11T12:46:08.175Z,60.17
2023-03-11T12:47:08.154Z,60.58
2023-03-11T12:48:08.139Z,61.52
2023-03-11T12:49:08.071Z,61.76
2023-03-11T12:50:08.045Z,62.16
2023-03-11T12:51:08.035Z,61.86
2023-03-11T12:52:08.044Z,61.99
2023-03-11T12:53:08.016Z,62.09
2023-03-11T12:54:08.016Z,62.71
2023-03-11T12:55:07.999Z,62.51
2023-03-11T12:56:08.005Z,62.71
2023-03-11T12:57:08.016Z,63.54
2023-03-11T12:58:07.989Z,63.65
2023-03-11T12:59:07.935Z,63.75
2023-03-11T13:00:08.004Z,64.06
2023-03-11T13:01:07.942Z,63.75
2023-03-11T13:02:07.929Z,63.54
2023-03-11T13:03:08.078Z,63.23
2023-03-11T13:04:07.883Z,63.23
2023-03-11T13:05:07.884Z,63.23
2023-03-11T13:06:07.882Z,63.37
2023-03-11T13:07:07.852Z,63.26
2023-03-11T13:08:07.890Z,63.26
2023-03-11T13:09:07.861Z,62.64
2023-03-11T13:10:07.836Z,62.12
2023-03-11T13:11:07.842Z,61.50
2023-03-11T13:12:07.816Z,61.08
2023-03-11T13:13:07.772Z,60.25
2023-03-11T13:14:07.752Z,59.22
2023-03-11T13:15:07.749Z,59.14
2023-03-11T13:16:07.749Z,58.94
2023-03-11T13:17:07.754Z,59.66
2023-03-11T13:18:07.736Z,59.45
2023-03-11T13:19:07.760Z,59.56
2023-03-11T13:20:07.666Z,59.56